Time;durP1;ratioP1;P1;durP2;ratioP2;P2;SDS_P1;SDS_P2;PMS_P1;PMS_P2;Temp;Humidity;BMP_temperature;BMP_pressure;BME280_temperature;BME280_humidity;BME280_pressure;Samples;Min_cycle;Max_cycle;Signal;HPM_P1;HPM_P2
2021/10/27 00:00:34;;;;;;;8.20;5.50;;;;;;;5.43;85.78;98642.91;6171291;28;20196;-69
2021/10/27 00:03:37;;;;;;;8.87;6.30;;;;;;;5.37;85.77;98642.34;6171370;28;20208;-69
2021/10/27 00:06:39;;;;;;;9.60;6.87;;;;;;;5.26;85.88;98644.59;6170493;28;20279;-70
2021/10/27 00:09:42;;;;;;;9.87;7.47;;;;;;;5.16;86.30;98650.22;6170948;28;20214;-69
2021/10/27 00:12:45;;;;;;;11.00;6.93;;;;;;;5.08;86.32;98643.63;6169406;28;20197;-70
2021/10/27 00:15:47;;;;;;;9.93;6.53;;;;;;;4.99;85.84;98646.63;6169791;28;20205;-70
2021/10/27 00:18:49;;;;;;;10.03;6.93;;;;;;;4.96;86.27;98649.38;6152970;28;20284;-69
2021/10/27 00:21:51;;;;;;;10.93;8.03;;;;;;;4.90;85.92;98647.84;6170161;28;20190;-70
2021/10/27 00:24:54;;;;;;;11.23;7.17;;;;;;;4.85;86.38;98657.66;6170212;28;20194;-70
2021/10/27 00:27:56;;;;;;;9.83;7.63;;;;;;;4.81;86.34;98646.47;6153747;28;20325;-70
2021/10/27 00:30:58;;;;;;;11.53;8.70;;;;;;;4.79;86.63;98645.66;6146255;28;20209;-69
2021/10/27 00:34:00;;;;;;;13.90;9.17;;;;;;;4.76;85.72;98645.81;6167236;28;20576;-70
2021/10/27 00:37:03;;;;;;;14.33;10.17;;;;;;;4.73;85.70;98648.56;6170658;28;20225;-69
2021/10/27 00:40:06;;;;;;;15.47;7.97;;;;;;;4.74;85.80;98644.19;6170029;28;20256;-69
2021/10/27 00:43:08;;;;;;;12.40;8.63;;;;;;;4.71;85.59;98646.91;6171182;28;20664;-70
2021/10/27 00:46:19;;;;;;;11.37;8.83;;;;;;;4.69;86.26;98654.00;6158440;28;20186;-70
2021/10/27 00:49:22;;;;;;;14.37;8.27;;;;;;;4.67;86.14;98653.19;6174975;28;20240;-70
2021/10/27 00:52:24;;;;;;;14.30;8.63;;;;;;;4.63;86.21;98659.44;6175149;28;20190;-70
2021/10/27 00:55:26;;;;;;;14.67;9.30;;;;;;;4.63;86.24;98656.84;6171862;28;20206;-69
2021/10/27 00:58:29;;;;;;;13.13;9.17;;;;;;;4.63;86.89;98657.69;6157811;28;20228;-69
2021/10/27 01:01:31;;;;;;;14.90;9.37;;;;;;;4.63;86.81;98652.47;6175424;28;20189;-70
2021/10/27 01:04:33;;;;;;;14.20;9.10;;;;;;;4.64;86.80;98645.47;6174283;28;20194;-71
2021/10/27 01:07:36;;;;;;;10.53;8.00;;;;;;;4.64;87.09;98651.53;6174931;28;20292;-70
2021/10/27 01:10:38;;;;;;;9.93;7.10;;;;;;;4.64;86.87;98645.47;6174604;28;20624;-70
2021/10/27 01:13:40;;;;;;;15.60;9.93;;;;;;;4.64;86.62;98648.09;6158172;28;20332;-70
2021/10/27 01:16:43;;;;;;;13.90;10.03;;;;;;;4.65;86.86;98640.19;6157125;28;20244;-69
2021/10/27 01:19:47;;;;;;;12.60;8.40;;;;;;;4.65;86.58;98641.94;6157396;28;20564;-70
2021/10/27 01:22:50;;;;;;;15.47;10.20;;;;;;;4.69;87.04;98630.47;6174700;28;20624;-70
2021/10/27 01:25:52;;;;;;;12.80;8.63;;;;;;;4.70;87.25;98632.97;6174438;28;20559;-70
2021/10/27 01:28:54;;;;;;;13.07;9.53;;;;;;;4.76;87.88;98637.13;6173036;28;20213;-69
2021/10/27 01:31:57;;;;;;;14.10;8.43;;;;;;;4.76;87.97;98650.19;6158941;28;20673;-71
2021/10/27 01:35:00;;;;;;;13.33;9.07;;;;;;;4.73;87.60;98653.78;6161033;28;20204;-71
2021/10/27 01:38:02;;;;;;;13.03;9.17;;;;;;;4.73;88.14;98643.31;6174142;28;20630;-70
2021/10/27 01:41:04;;;;;;;13.40;9.37;;;;;;;4.71;87.54;98641.69;6156818;28;20272;-70
2021/10/27 01:44:06;;;;;;;16.73;9.90;;;;;;;4.71;87.85;98649.53;6174383;28;20207;-70
2021/10/27 01:47:08;;;;;;;13.53;9.23;;;;;;;4.69;87.80;98657.44;6173655;28;20583;-70
2021/10/27 01:50:13;;;;;;;15.50;10.17;;;;;;;4.66;87.93;98652.34;6174056;28;20205;-69
2021/10/27 01:53:15;;;;;;;16.17;10.00;;;;;;;4.68;87.33;98641.81;6157035;28;20212;-72
2021/10/27 01:56:17;;;;;;;18.40;12.67;;;;;;;4.68;88.22;98644.44;6162054;28;20210;-70
2021/10/27 01:59:21;;;;;;;19.13;12.10;;;;;;;4.70;88.50;98642.59;6147102;28;20197;-69
2021/10/27 02:02:23;;;;;;;15.43;11.30;;;;;;;4.72;88.60;98646.84;6173321;28;20301;-70
2021/10/27 02:05:26;;;;;;;18.07;11.77;;;;;;;4.72;87.73;98636.38;6173139;28;20197;-70
2021/10/27 02:08:28;;;;;;;17.77;10.80;;;;;;;4.69;88.07;98640.91;6173220;28;20708;-70
2021/10/27 02:11:30;;;;;;;11.20;8.17;;;;;;;4.66;87.57;98644.50;6172425;28;20208;-72
2021/10/27 02:14:34;;;;;;;15.93;10.10;;;;;;;4.63;88.16;98646.38;6156760;28;20688;-70
2021/10/27 02:17:37;;;;;;;17.27;9.60;;;;;;;4.59;88.16;98639.59;6173781;28;20198;-70
2021/10/27 02:20:40;;;;;;;15.47;10.60;;;;;;;4.56;88.26;98642.31;6171967;28;20197;-70
2021/10/27 02:23:42;;;;;;;16.57;10.70;;;;;;;4.50;88.50;98632.94;6155995;28;20226;-70
2021/10/27 02:26:46;;;;;;;14.73;10.20;;;;;;;4.51;88.41;98639.88;6173156;28;20206;-70
2021/10/27 02:29:48;;;;;;;16.23;10.60;;;;;;;4.48;88.85;98636.56;6173230;28;20716;-70
2021/10/27 02:32:50;;;;;;;13.87;10.20;;;;;;;4.44;88.53;98636.69;6156334;28;20201;-69
2021/10/27 02:35:53;;;;;;;17.87;12.17;;;;;;;4.41;87.85;98641.16;6172747;28;20206;-70
2021/10/27 02:39:13;;;;;;;19.33;12.27;;;;;;;4.39;88.79;98643.84;6157772;28;20241;-69
2021/10/27 02:42:15;;;;;;;17.27;11.30;;;;;;;4.40;88.70;98650.75;6171758;28;20565;-69
2021/10/27 02:45:18;;;;;;;23.00;11.77;;;;;;;4.35;87.89;98660.56;6171364;28;20209;-70
2021/10/27 02:48:20;;;;;;;18.93;11.53;;;;;;;4.33;88.63;98656.31;6171853;28;20291;-70
2021/10/27 02:51:25;;;;;;;14.23;10.27;;;;;;;4.28;88.94;98664.34;6171308;28;20205;-70
2021/10/27 02:54:27;;;;;;;14.97;10.00;;;;;;;4.25;88.69;98654.00;6170763;28;20676;-70
2021/10/27 02:57:30;;;;;;;13.03;8.40;;;;;;;4.20;88.32;98661.16;6146419;28;20205;-69
2021/10/27 03:00:33;;;;;;;12.07;8.93;;;;;;;4.18;88.69;98662.16;6171015;28;20199;-69
2021/10/27 03:03:35;;;;;;;11.87;8.63;;;;;;;4.13;88.39;98667.53;6171173;28;20205;-69
2021/10/27 03:06:39;;;;;;;14.40;9.37;;;;;;;4.09;88.86;98665.97;6171946;28;20303;-70
2021/10/27 03:09:41;;;;;;;14.33;9.43;;;;;;;4.05;88.52;98666.97;6172063;28;20214;-70
2021/10/27 03:12:44;;;;;;;15.17;10.50;;;;;;;4.05;88.41;98673.06;6155025;28;20207;-70
2021/10/27 03:15:46;;;;;;;13.53;8.47;;;;;;;4.03;88.67;98676.63;6170708;28;20685;-69
2021/10/27 03:18:48;;;;;;;12.23;8.07;;;;;;;4.00;88.38;98680.19;6154629;28;20193;-70
2021/10/27 03:21:50;;;;;;;10.00;8.37;;;;;;;3.96;88.80;98669.94;6172150;28;20705;-70
2021/10/27 03:24:52;;;;;;;12.53;8.47;;;;;;;3.92;88.66;98678.78;6170280;28;20723;-69
2021/10/27 03:27:54;;;;;;;12.63;9.07;;;;;;;3.91;88.67;98672.72;6172041;28;20276;-70
2021/10/27 03:30:56;;;;;;;12.73;8.90;;;;;;;3.87;88.97;98678.13;6167279;28;20573;-69
2021/10/27 03:33:58;;;;;;;13.87;9.73;;;;;;;3.85;88.69;98685.16;6154388;28;20201;-70
2021/10/27 03:37:01;;;;;;;13.37;8.83;;;;;;;3.81;89.14;98683.56;6146564;28;20235;-70
2021/10/27 03:40:05;;;;;;;13.47;9.10;;;;;;;3.76;88.71;98681.13;6168174;28;20702;-70
2021/10/27 03:43:07;;;;;;;16.77;11.07;;;;;;;3.71;88.54;98685.66;6170568;28;20331;-70
2021/10/27 03:46:11;;;;;;;18.13;9.13;;;;;;;3.68;88.68;98686.66;6171042;28;20220;-69
2021/10/27 03:49:13;;;;;;;13.37;9.10;;;;;;;3.63;88.52;98693.78;6171215;28;20325;-69
2021/10/27 03:52:16;;;;;;;10.77;7.53;;;;;;;3.62;88.38;98694.69;6170976;28;20743;-70
2021/10/27 03:55:18;;;;;;;10.77;7.30;;;;;;;3.56;88.84;98702.75;6169242;28;20259;-70
2021/10/27 03:58:20;;;;;;;12.23;8.03;;;;;;;3.51;88.61;98691.59;6148063;28;20229;-69
2021/10/27 04:01:22;;;;;;;8.77;6.67;;;;;;;3.49;88.90;98701.28;6170829;28;20217;-71
2021/10/27 04:04:24;;;;;;;12.40;7.30;;;;;;;3.43;88.75;98703.22;6170790;28;20211;-70
2021/10/27 04:07:26;;;;;;;13.43;7.77;;;;;;;3.40;88.72;98711.16;6169887;28;20208;-70
2021/10/27 04:10:28;;;;;;;9.13;6.27;;;;;;;3.40;88.73;98706.78;6170850;28;20222;-70
2021/10/27 04:13:30;;;;;;;9.73;7.20;;;;;;;3.39;88.35;98701.66;6171280;28;20607;-70
2021/10/27 04:16:36;;;;;;;11.50;6.53;;;;;;;3.40;88.95;98713.75;6170451;28;20196;-69
2021/10/27 04:19:38;;;;;;;9.10;6.30;;;;;;;3.37;88.94;98706.91;6170391;28;20213;-70
2021/10/27 04:22:41;;;;;;;8.40;6.27;;;;;;;3.33;88.64;98707.91;6169366;28;20210;-70
2021/10/27 04:25:43;;;;;;;11.87;6.83;;;;;;;3.31;88.99;98709.72;6171327;28;20222;-69
2021/10/27 04:28:45;;;;;;;9.97;7.13;;;;;;;3.30;88.73;98713.22;6169538;28;20386;-70
2021/10/27 04:31:48;;;;;;;9.37;6.23;;;;;;;3.29;88.98;98717.59;6156996;28;20207;-70
2021/10/27 04:34:50;;;;;;;7.60;6.23;;;;;;;3.27;89.10;98715.97;6163446;28;20266;-70
2021/10/27 04:37:53;;;;;;;10.47;6.17;;;;;;;3.24;88.73;98714.31;6170462;28;20220;-70
2021/10/27 04:40:55;;;;;;;8.33;6.07;;;;;;;3.24;88.58;98716.06;6170698;28;20298;-70
2021/10/27 04:43:57;;;;;;;12.57;6.53;;;;;;;3.24;88.70;98710.84;6170210;28;20239;-71
2021/10/27 04:47:03;;;;;;;8.40;6.20;;;;;;;3.24;88.49;98719.50;6170535;28;20286;-70
2021/10/27 04:50:06;;;;;;;12.63;8.03;;;;;;;3.27;89.12;98721.19;6170482;28;20208;-70
2021/10/27 04:53:16;;;;;;;8.13;6.57;;;;;;;3.24;88.97;98718.66;6170300;28;20202;-69
2021/10/27 04:56:18;;;;;;;13.33;8.00;;;;;;;3.24;88.89;98723.88;6143426;29;20280;-70
2021/10/27 04:59:20;;;;;;;13.77;8.20;;;;;;;3.22;89.24;98723.06;6167371;28;20199;-70
2021/10/27 05:02:22;;;;;;;14.63;7.50;;;;;;;3.18;89.30;98716.28;6169217;28;20751;-70
2021/10/27 05:05:26;;;;;;;12.57;8.63;;;;;;;3.15;88.94;98714.63;6160775;28;20552;-70
2021/10/27 05:08:31;;;;;;;12.97;8.37;;;;;;;3.14;88.85;98718.13;6158399;28;20228;-70
2021/10/27 05:11:33;;;;;;;11.43;7.60;;;;;;;3.10;89.17;98713.03;6170395;28;20199;-69
2021/10/27 05:14:36;;;;;;;16.17;8.50;;;;;;;3.10;89.09;98724.34;6168351;28;20710;-70
2021/10/27 05:17:38;;;;;;;12.63;8.20;;;;;;;3.09;88.90;98721.81;6169492;28;20187;-70
2021/10/27 05:20:41;;;;;;;15.37;9.43;;;;;;;3.07;89.15;98728.81;6170147;28;20662;-69
2021/10/27 05:23:43;;;;;;;14.40;9.27;;;;;;;3.04;88.88;98723.69;6169838;28;20205;-70
2021/10/27 05:26:45;;;;;;;15.67;9.00;;;;;;;3.06;89.37;98734.94;6152704;28;20683;-70
2021/10/27 05:29:47;;;;;;;13.90;9.43;;;;;;;3.05;89.01;98728.00;6153296;28;20287;-71
2021/10/27 05:32:49;;;;;;;12.40;8.13;;;;;;;3.00;88.87;98729.91;6165660;28;20242;-69
2021/10/27 05:35:52;;;;;;;15.80;10.20;;;;;;;2.97;89.22;98731.75;6158307;28;20427;-68
2021/10/27 05:38:54;;;;;;;16.40;11.07;;;;;;;2.97;88.43;98736.94;6140136;28;20211;-68
2021/10/27 05:41:57;;;;;;;17.53;10.80;;;;;;;3.00;89.16;98729.91;6173927;28;20194;-69
2021/10/27 05:45:03;;;;;;;17.37;11.37;;;;;;;3.03;89.22;98735.88;6172719;28;20217;-69
2021/10/27 05:48:07;;;;;;;20.13;11.73;;;;;;;3.05;89.10;98738.44;6173264;28;20261;-69
2021/10/27 05:51:15;;;;;;;24.90;13.40;;;;;;;3.09;89.52;98742.66;6173444;28;20215;-69
2021/10/27 05:57:41;;;;;;;20.77;11.93;;;;;;;3.11;88.89;98757.34;6171809;28;20224;-69
2021/10/27 06:00:45;;;;;;;19.57;11.93;;;;;;;3.14;89.13;98757.25;6173116;28;20580;-69
2021/10/27 06:03:47;;;;;;;18.67;12.07;;;;;;;3.17;89.27;98758.91;6172667;28;20196;-68
2021/10/27 06:06:49;;;;;;;20.83;11.47;;;;;;;3.19;88.92;98767.53;6171112;28;20203;-69
2021/10/27 06:09:54;;;;;;;20.83;12.83;;;;;;;3.21;89.32;98768.31;6171789;28;20213;-69
2021/10/27 06:13:07;;;;;;;21.90;13.30;;;;;;;3.28;89.17;98772.44;6172570;28;20199;-69
2021/10/27 06:16:09;;;;;;;22.50;13.13;;;;;;;3.26;88.80;98772.50;6172989;28;20607;-68
2021/10/27 06:19:11;;;;;;;18.03;11.80;;;;;;;3.31;88.90;98775.78;6172952;28;20683;-69
2021/10/27 06:22:13;;;;;;;18.50;11.93;;;;;;;3.32;88.78;98774.88;6155078;28;20213;-69
2021/10/27 06:25:15;;;;;;;22.53;14.10;;;;;;;3.35;89.16;98784.38;6173096;28;20193;-69
2021/10/27 06:28:23;;;;;;;20.73;12.33;;;;;;;3.40;89.06;98792.03;6168230;28;20207;-69
2021/10/27 06:31:37;;;;;;;20.40;12.27;;;;;;;3.44;88.99;98798.84;6171071;28;20224;-68
2021/10/27 06:34:45;;;;;;;20.23;12.33;;;;;;;3.45;89.34;98790.13;6172621;28;20202;-68
2021/10/27 06:45:55;;;;;;;17.30;11.50;;;;;;;3.56;89.19;98804.53;6172027;28;20201;-69
2021/10/27 06:47:53;;;;;;;14.47;10.63;;;;;;;3.64;89.08;98802.50;6172315;28;20651;-70
2021/10/27 06:50:56;;;;;;;16.87;10.97;;;;;;;3.69;89.20;98808.41;6170803;28;20219;-69
2021/10/27 06:53:59;;;;;;;17.07;10.83;;;;;;;3.73;88.39;98809.16;6164009;28;20652;-69
2021/10/27 06:57:01;;;;;;;21.23;11.97;;;;;;;3.79;88.69;98808.97;6138600;29;20613;-69
2021/10/27 07:00:43;;;;;;;19.47;11.53;;;;;;;3.87;88.64;98814.75;6169163;28;20545;-69
2021/10/27 07:03:45;;;;;;;17.97;12.27;;;;;;;3.96;88.77;98811.81;6170319;28;20203;-69
2021/10/27 07:16:34;;;;;;;20.33;12.30;;;;;;;4.28;88.09;98809.81;6165862;28;20685;-70
2021/10/27 07:19:36;;;;;;;23.00;13.67;;;;;;;4.37;88.94;98815.53;6169681;28;20348;-69
2021/10/27 07:22:38;;;;;;;21.23;12.97;;;;;;;4.50;88.97;98815.06;6170928;28;20194;-70
2021/10/27 07:25:41;;;;;;;23.93;13.97;;;;;;;4.61;89.06;98816.38;6171449;28;20193;-69
2021/10/27 07:28:44;;;;;;;21.27;12.57;;;;;;;4.77;88.40;98809.66;6170584;28;20200;-70
2021/10/27 07:31:50;;;;;;;25.33;15.07;;;;;;;4.88;88.98;98814.47;6169751;28;20221;-69
2021/10/27 07:35:13;;;;;;;22.00;12.57;;;;;;;4.99;88.25;98817.47;6169612;28;20186;-69
2021/10/27 07:41:40;;;;;;;23.67;15.37;;;;;;;5.24;89.10;98814.75;6158809;28;20213;-69
2021/10/27 07:44:42;;;;;;;19.37;12.70;;;;;;;5.35;88.93;98807.31;6169868;28;20201;-69
2021/10/27 07:47:44;;;;;;;21.97;13.13;;;;;;;5.49;89.07;98806.75;6168072;28;20611;-69
2021/10/27 07:50:47;;;;;;;23.37;13.07;;;;;;;5.60;88.84;98809.75;6166680;28;20575;-69
2021/10/27 07:53:53;;;;;;;27.53;13.77;;;;;;;5.76;88.56;98810.81;6169614;28;20588;-69
2021/10/27 07:56:55;;;;;;;29.23;15.43;;;;;;;5.96;88.62;98806.50;6153094;28;20198;-69
2021/10/27 07:59:58;;;;;;;23.57;13.90;;;;;;;6.13;89.02;98802.22;6152710;28;20194;-69
2021/10/27 08:03:01;;;;;;;29.50;17.20;;;;;;;6.41;89.29;98811.47;6170830;28;20202;-69
2021/10/27 08:06:06;;;;;;;25.70;15.20;;;;;;;6.69;88.92;98804.03;6169729;28;20204;-69
2021/10/27 08:09:08;;;;;;;35.23;17.47;;;;;;;7.00;89.18;98801.66;6152948;28;20226;-69
2021/10/27 08:12:10;;;;;;;25.00;14.53;;;;;;;7.37;88.99;98800.75;6152702;28;20213;-69
2021/10/27 08:15:14;;;;;;;28.33;13.67;;;;;;;7.73;88.60;98811.16;6170502;28;20281;-69
2021/10/27 08:18:17;;;;;;;15.03;9.77;;;;;;;8.07;87.50;98817.34;6159019;28;20572;-70
2021/10/27 08:21:19;;;;;;;10.90;8.20;;;;;;;8.46;86.05;98810.00;6152868;28;20222;-69
2021/10/27 08:24:24;;;;;;;11.80;6.80;;;;;;;8.81;84.71;98821.22;6169886;28;20537;-69
2021/10/27 08:27:28;;;;;;;8.03;6.80;;;;;;;9.32;81.31;98806.06;6169776;28;20218;-70
2021/10/27 08:30:37;;;;;;;7.70;5.33;;;;;;;9.68;79.88;98810.19;6152159;28;20222;-69
2021/10/27 08:33:50;;;;;;;10.00;6.00;;;;;;;9.90;78.39;98808.78;6162596;28;20529;-69
2021/10/27 08:36:52;;;;;;;6.93;4.33;;;;;;;10.24;77.96;98810.28;6159622;28;20217;-69
2021/10/27 08:39:54;;;;;;;6.00;3.93;;;;;;;10.50;76.88;98805.19;6165162;28;20207;-69
2021/10/27 08:42:58;;;;;;;5.57;4.13;;;;;;;10.75;75.34;98808.00;6169459;28;20722;-70
2021/10/27 08:46:01;;;;;;;5.00;3.70;;;;;;;10.98;74.26;98806.56;6170071;28;20244;-69
2021/10/27 08:49:07;;;;;;;3.97;2.90;;;;;;;11.19;73.78;98806.94;6168747;28;20644;-70
2021/10/27 08:52:12;;;;;;;4.00;3.40;;;;;;;11.40;71.80;98800.28;6168993;28;20312;-69
2021/10/27 08:55:16;;;;;;;4.93;3.40;;;;;;;11.65;70.89;98796.88;6169813;28;20198;-69
2021/10/27 08:58:24;;;;;;;5.40;4.13;;;;;;;11.85;69.31;98800.84;6169092;28;20222;-69
2021/10/27 09:04:55;;;;;;;3.90;3.43;;;;;;;12.49;66.35;98795.44;6170006;28;20198;-69
2021/10/27 09:15:41;;;;;;;3.83;3.07;;;;;;;12.37;65.80;98795.47;6174033;28;20665;-70
2021/10/27 09:45:08;;;;;;;3.67;3.00;;;;;;;15.04;55.06;98785.00;6173151;28;20657;-69
2021/10/27 10:04:51;;;;;;;3.37;2.70;;;;;;;15.74;52.64;98781.88;6170584;28;20198;-69
2021/10/27 10:07:53;;;;;;;3.70;2.70;;;;;;;15.48;52.20;98782.19;6170860;28;20663;-69
2021/10/27 10:10:56;;;;;;;5.03;2.33;;;;;;;15.70;51.56;98775.13;6171918;28;20221;-69
2021/10/27 10:14:04;;;;;;;3.50;2.40;;;;;;;15.56;51.10;98778.94;6173090;28;20213;-70
2021/10/27 10:17:07;;;;;;;3.47;2.60;;;;;;;15.32;51.99;98765.81;6164086;28;20706;-69
2021/10/27 10:20:11;;;;;;;4.03;2.30;;;;;;;15.34;52.36;98765.69;6171167;28;20198;-69
2021/10/27 10:23:33;;;;;;;3.90;2.50;;;;;;;15.38;52.80;98767.94;6172446;28;20190;-68
2021/10/27 10:26:38;;;;;;;5.27;2.33;;;;;;;15.21;53.80;98763.19;6171720;28;20205;-70
2021/10/27 10:29:52;;;;;;;4.30;2.83;;;;;;;15.25;53.23;98769.97;6171047;28;20194;-69
2021/10/27 10:33:08;;;;;;;4.93;2.50;;;;;;;15.45;51.49;98761.19;6151540;28;20206;-69
2021/10/27 10:36:24;;;;;;;3.17;2.70;;;;;;;15.31;52.35;98773.91;6172183;28;20210;-69
2021/10/27 10:39:50;;;;;;;6.17;4.50;;;;;;;15.23;53.24;98771.88;6152516;28;20658;-69
2021/10/27 10:55:30;;;;;;;4.67;2.50;;;;;;;16.13;51.12;98764.34;6171510;28;20201;-69
2021/10/27 10:57:00;;;;;;;7.13;4.67;;;;;;;14.78;55.83;98764.00;6170526;28;20194;-69
2021/10/27 11:03:56;;;;;;;8.00;3.73;;;;;;;14.29;58.56;98758.19;6171741;28;20195;-69
2021/10/27 11:24:33;;;;;;;9.83;6.77;;;;;;;14.83;56.77;98741.53;6171629;28;20620;-68
2021/10/27 11:27:36;;;;;;;10.27;6.90;;;;;;;15.18;54.63;98723.53;6169861;28;20622;-68
2021/10/27 11:41:10;;;;;;;6.87;5.33;;;;;;;16.41;52.53;98714.84;6170964;28;20251;-68
2021/10/27 11:45:04;;;;;;;8.47;6.80;;;;;;;16.42;50.23;98704.06;6171580;28;20202;-68
2021/10/27 11:48:27;;;;;;;8.43;6.47;;;;;;;16.36;51.26;98703.75;6170622;28;20230;-68
2021/10/27 11:51:29;;;;;;;8.60;5.60;;;;;;;16.75;50.64;98702.94;6171162;28;20223;-68
2021/10/27 11:54:31;;;;;;;7.97;5.60;;;;;;;17.21;49.59;98696.09;6170702;28;20195;-68
2021/10/27 11:57:36;;;;;;;8.33;5.43;;;;;;;17.60;48.44;98687.09;6153246;28;20229;-67
2021/10/27 12:00:41;;;;;;;6.13;4.30;;;;;;;17.97;47.76;98689.00;6170546;28;20269;-68
2021/10/27 12:03:44;;;;;;;4.33;3.40;;;;;;;18.30;45.75;98683.13;6171304;28;20210;-67
2021/10/27 12:06:53;;;;;;;5.30;2.73;;;;;;;18.52;43.88;98689.94;6170558;28;20198;-68
2021/10/27 12:13:04;;;;;;;3.87;2.87;;;;;;;18.96;43.94;98668.75;6153756;28;20767;-68
2021/10/27 12:19:36;;;;;;;7.10;4.90;;;;;;;19.01;44.02;98669.13;6170625;28;20268;-67
2021/10/27 12:22:38;;;;;;;7.67;5.63;;;;;;;18.68;44.22;98673.25;6170228;28;20221;-68
2021/10/27 12:25:40;;;;;;;9.47;5.20;;;;;;;18.60;44.80;98670.50;6170624;28;20325;-68
2021/10/27 12:28:43;;;;;;;7.77;4.83;;;;;;;19.05;45.02;98665.16;6153136;28;20202;-68
2021/10/27 12:32:11;;;;;;;5.73;4.77;;;;;;;19.17;44.07;98663.91;6156927;28;20223;-68
2021/10/27 12:35:14;;;;;;;5.00;4.50;;;;;;;19.24;43.20;98662.31;6155785;28;20199;-68
2021/10/27 12:38:29;;;;;;;7.47;5.27;;;;;;;18.43;44.33;98658.75;6169893;28;20613;-69
2021/10/27 12:41:31;;;;;;;6.33;4.80;;;;;;;18.50;44.23;98657.16;6177929;28;20194;-68
2021/10/27 12:44:43;;;;;;;5.37;4.37;;;;;;;18.56;44.22;98653.91;6177049;28;20299;-68
2021/10/27 12:47:45;;;;;;;6.17;4.60;;;;;;;18.76;44.09;98650.16;6178008;28;20595;-68
2021/10/27 12:51:02;;;;;;;5.60;4.50;;;;;;;18.45;44.34;98656.78;6177957;28;20605;-68
2021/10/27 12:54:04;;;;;;;6.00;5.40;;;;;;;18.66;43.73;98649.38;6177651;28;20198;-67
2021/10/27 12:57:06;;;;;;;6.77;4.60;;;;;;;18.85;43.41;98645.72;6153081;28;20564;-68
2021/10/27 13:13:14;;;;;;;6.53;4.63;;;;;;;21.71;36.29;98626.28;6153992;28;20309;-68
2021/10/27 13:16:55;;;;;;;6.47;4.23;;;;;;;21.91;35.99;98616.00;6177880;28;20627;-68
2021/10/27 13:20:15;;;;;;;4.77;3.13;;;;;;;21.65;37.08;98617.06;6177988;28;20559;-68
2021/10/27 13:24:00;;;;;;;6.10;3.43;;;;;;;22.45;35.61;98625.09;6178372;28;20257;-68
2021/10/27 13:30:10;;;;;;;5.63;3.60;;;;;;;19.10;41.63;98630.72;6176923;28;20201;-68
2021/10/27 13:33:14;;;;;;;6.47;3.60;;;;;;;18.01;44.53;98631.66;6173651;28;20202;-68
2021/10/27 13:36:16;;;;;;;6.27;3.87;;;;;;;16.77;47.01;98633.50;6161303;28;20673;-68
2021/10/27 13:39:19;;;;;;;5.70;4.60;;;;;;;15.90;49.10;98630.53;6177160;28;20535;-68
2021/10/27 13:45:36;;;;;;;7.07;4.77;;;;;;;15.42;50.76;98632.88;6177313;28;20197;-67
2021/10/27 14:08:30;;;;;;;5.83;3.20;;;;;;;14.90;53.18;98628.44;6173226;28;20179;-68
2021/10/27 14:11:44;;;;;;;7.83;2.80;;;;;;;14.69;53.89;98623.06;6173317;28;20198;-68
2021/10/27 14:18:11;;;;;;;3.93;2.40;;;;;;;14.50;55.03;98631.69;6173578;28;20225;-68
2021/10/27 14:59:13;;;;;;;4.53;2.20;;;;;;;12.03;64.22;98620.53;6163141;28;20206;-67
2021/10/27 15:22:45;;;;;;;3.80;2.63;;;;;;;10.56;67.96;98633.25;6171312;28;20196;-68
2021/10/27 15:25:45;;;;;;;3.70;2.60;;;;;;;10.29;68.47;98641.16;6169171;28;20217;-72
2021/10/27 15:30:00;;;;;;;6.27;2.80;;;;;;;10.06;69.88;98637.31;6171118;28;20194;-68
2021/10/27 15:32:26;;;;;;;5.83;2.77;;;;;;;9.80;69.82;98643.34;6153279;28;20587;-68
2021/10/27 15:51:29;;;;;;;4.47;2.40;;;;;;;8.67;72.69;98658.00;6170799;28;20213;-68
2021/10/27 15:54:31;;;;;;;2.57;2.37;;;;;;;8.56;72.91;98649.88;6171260;28;20205;-68
2021/10/27 15:57:34;;;;;;;4.50;2.40;;;;;;;8.46;73.04;98661.84;6168731;28;20202;-68
2021/10/27 16:00:39;;;;;;;4.87;2.50;;;;;;;8.32;73.90;98657.34;6171223;28;20277;-68
2021/10/27 16:03:41;;;;;;;3.70;2.50;;;;;;;8.17;73.53;98659.94;6171320;28;20197;-68
2021/10/27 16:06:54;;;;;;;3.03;2.60;;;;;;;8.05;74.53;98658.81;6170123;28;20610;-67
2021/10/27 16:10:03;;;;;;;3.20;2.37;;;;;;;7.88;74.93;98654.50;6171099;28;20196;-67
2021/10/27 16:13:06;;;;;;;4.20;2.83;;;;;;;7.75;74.88;98667.44;6170685;28;20206;-68
2021/10/27 16:16:08;;;;;;;3.57;2.90;;;;;;;7.62;75.28;98665.50;6170376;28;20234;-68
2021/10/27 16:19:10;;;;;;;6.17;3.13;;;;;;;7.46;75.65;98668.09;6171147;28;20204;-68
2021/10/27 16:22:28;;;;;;;4.17;2.90;;;;;;;7.33;76.37;98667.88;6170915;28;20173;-67
2021/10/27 16:25:31;;;;;;;3.00;2.67;;;;;;;7.23;76.51;98679.78;6170915;28;20199;-68
2021/10/27 16:28:33;;;;;;;2.97;2.40;;;;;;;7.17;76.72;98677.47;6170387;28;20197;-67
2021/10/27 16:31:36;;;;;;;3.87;2.60;;;;;;;7.09;77.30;98679.63;6158482;28;20712;-67
2021/10/27 16:34:39;;;;;;;3.83;2.57;;;;;;;7.02;76.77;98683.47;6158128;28;20723;-67
2021/10/27 16:37:57;;;;;;;2.47;2.20;;;;;;;6.94;77.22;98677.78;6169720;28;20615;-68
2021/10/27 16:40:59;;;;;;;2.63;2.37;;;;;;;6.86;77.18;98687.81;6170895;28;20193;-69
2021/10/27 16:44:05;;;;;;;3.43;2.60;;;;;;;6.80;77.36;98682.84;6168816;28;20205;-68
2021/10/27 16:47:07;;;;;;;2.70;2.50;;;;;;;6.68;77.41;98684.31;6170738;28;20207;-68
2021/10/27 16:50:12;;;;;;;3.80;2.60;;;;;;;6.59;77.52;98688.19;6170122;28;20198;-67
2021/10/27 16:53:18;;;;;;;3.00;2.70;;;;;;;6.52;78.29;98691.19;6170443;28;20709;-67
2021/10/27 16:56:20;;;;;;;5.27;2.90;;;;;;;6.45;78.58;98692.41;6160002;28;20870;-67
2021/10/27 16:59:22;;;;;;;5.23;2.50;;;;;;;6.41;78.13;98696.09;6163773;28;20280;-68
2021/10/27 17:02:26;;;;;;;9.10;3.20;;;;;;;6.34;79.29;98697.31;6170435;28;20189;-68
2021/10/27 17:05:29;;;;;;;6.17;3.30;;;;;;;6.22;79.29;98698.75;6169684;28;20748;-68
2021/10/27 17:08:31;;;;;;;4.70;3.20;;;;;;;6.17;79.37;98700.72;6170411;28;20206;-68
2021/10/27 17:11:53;;;;;;;6.67;3.07;;;;;;;6.11;79.98;98698.38;6169960;28;20210;-68
2021/10/27 17:14:55;;;;;;;6.77;3.63;;;;;;;6.06;79.99;98709.09;6170289;28;20195;-68
2021/10/27 17:17:57;;;;;;;6.23;3.10;;;;;;;6.00;79.80;98708.50;6170384;28;20633;-68
2021/10/27 17:21:00;;;;;;;4.37;3.07;;;;;;;5.95;79.91;98703.47;6169779;28;20200;-68
2021/10/27 17:24:04;;;;;;;3.57;3.20;;;;;;;5.90;80.37;98700.19;6170262;28;20821;-67
2021/10/27 17:27:06;;;;;;;5.47;3.23;;;;;;;5.83;80.49;98697.00;6173295;28;20199;-68
2021/10/27 17:30:14;;;;;;;3.93;2.90;;;;;;;5.75;80.59;98695.63;6172840;28;20209;-68
2021/10/27 17:33:17;;;;;;;5.03;3.33;;;;;;;5.67;80.29;98698.59;6163926;28;20265;-68
2021/10/27 17:36:21;;;;;;;6.77;3.03;;;;;;;5.63;80.56;98715.34;6173634;28;20289;-67
2021/10/27 17:39:23;;;;;;;5.50;3.17;;;;;;;5.53;80.31;98720.13;6174716;28;20206;-68
2021/10/27 17:42:26;;;;;;;3.93;3.13;;;;;;;5.48;80.72;98719.50;6174063;28;20195;-68
2021/10/27 17:45:39;;;;;;;4.77;3.60;;;;;;;5.48;81.06;98711.66;6157408;28;20193;-68
2021/10/27 17:48:55;;;;;;;3.97;3.20;;;;;;;5.47;81.24;98709.09;6173744;28;20234;-67
2021/10/27 17:52:09;;;;;;;5.73;3.20;;;;;;;5.39;81.36;98713.81;6174243;28;20733;-68
2021/10/27 17:58:38;;;;;;;4.10;2.87;;;;;;;5.26;81.58;98713.47;6172336;28;20198;-68
2021/10/27 18:01:41;;;;;;;6.17;3.47;;;;;;;5.24;81.37;98703.97;6174078;28;20322;-68
2021/10/27 18:04:43;;;;;;;6.20;3.63;;;;;;;5.20;81.48;98711.97;6171645;28;20670;-68
2021/10/27 18:07:45;;;;;;;5.87;3.20;;;;;;;5.15;81.98;98707.84;6156785;28;20572;-68
2021/10/27 18:10:51;;;;;;;4.30;3.70;;;;;;;5.09;81.89;98710.72;6173140;28;20674;-68
2021/10/27 18:14:04;;;;;;;4.17;3.33;;;;;;;5.05;81.93;98717.84;6173831;28;20206;-68
2021/10/27 18:17:07;;;;;;;6.73;3.80;;;;;;;4.98;82.98;98712.94;6173971;28;20214;-68
2021/10/27 18:20:11;;;;;;;3.60;3.20;;;;;;;4.97;82.36;98716.47;6155899;28;20313;-68
2021/10/27 18:27:13;;;;;;;6.00;3.60;;;;;;;4.92;82.68;98714.03;6171901;28;20665;-68
2021/10/27 18:37:19;;;;;;;5.70;4.07;;;;;;;4.93;83.35;98707.88;6171995;28;20751;-68
2021/10/27 18:40:28;;;;;;;5.53;4.07;;;;;;;4.90;83.98;98710.59;6172828;28;20190;-68
2021/10/27 18:43:30;;;;;;;4.70;3.57;;;;;;;4.86;83.62;98710.81;6173361;28;20179;-69
2021/10/27 18:46:32;;;;;;;4.40;3.37;;;;;;;4.78;83.07;98716.38;6172862;28;20233;-68
2021/10/27 18:49:35;;;;;;;4.17;3.33;;;;;;;4.71;84.16;98717.50;6172462;28;20372;-68